sensor_id;sensor_type;location;lat;lon;timestamp;P1;durP1;ratioP1;P2;durP2;ratioP2
12826;SDS011;66927;48.812;9.118;2023-02-22T00:00:52;6.93;;;4.77;;
12826;SDS011;66927;48.812;9.118;2023-02-22T00:05:57;9.83;;;5.13;;
12826;SDS011;66927;48.812;9.118;2023-02-22T00:08:24;7.43;;;4.80;;
12826;SDS011;66927;48.812;9.118;2023-02-22T00:10:59;8.27;;;5.30;;
12826;SDS011;66927;48.812;9.118;2023-02-22T00:13:28;12.70;;;6.40;;
12826;SDS011;66927;48.812;9.118;2023-02-22T00:15:55;9.30;;;6.40;;
12826;SDS011;66927;48.812;9.118;2023-02-22T00:18:21;15.17;;;6.27;;
12826;SDS011;66927;48.812;9.118;2023-02-22T00:20:47;11.93;;;6.70;;
12826;SDS011;66927;48.812;9.118;2023-02-22T00:23:14;9.20;;;5.20;;
12826;SDS011;66927;48.812;9.118;2023-02-22T00:25:43;8.17;;;5.73;;
12826;SDS011;66927;48.812;9.118;2023-02-22T00:28:10;10.30;;;5.60;;
12826;SDS011;66927;48.812;9.118;2023-02-22T00:30:36;8.73;;;5.00;;
12826;SDS011;66927;48.812;9.118;2023-02-22T00:33:03;8.27;;;5.40;;
12826;SDS011;66927;48.812;9.118;2023-02-22T00:35:30;7.33;;;5.63;;
12826;SDS011;66927;48.812;9.118;2023-02-22T00:37:57;8.50;;;5.13;;
12826;SDS011;66927;48.812;9.118;2023-02-22T00:40:26;10.10;;;5.57;;
12826;SDS011;66927;48.812;9.118;2023-02-22T00:42:56;7.17;;;5.27;;
12826;SDS011;66927;48.812;9.118;2023-02-22T00:45:24;6.63;;;4.50;;
12826;SDS011;66927;48.812;9.118;2023-02-22T00:47:51;8.83;;;5.30;;
12826;SDS011;66927;48.812;9.118;2023-02-22T00:50:18;9.10;;;5.47;;
12826;SDS011;66927;48.812;9.118;2023-02-22T00:52:44;8.60;;;5.20;;
12826;SDS011;66927;48.812;9.118;2023-02-22T00:55:15;7.33;;;4.83;;
12826;SDS011;66927;48.812;9.118;2023-02-22T00:57:46;8.53;;;4.87;;
12826;SDS011;66927;48.812;9.118;2023-02-22T01:00:21;8.33;;;4.70;;
12826;SDS011;66927;48.812;9.118;2023-02-22T01:02:51;6.80;;;4.53;;
12826;SDS011;66927;48.812;9.118;2023-02-22T01:05:19;5.90;;;4.60;;
12826;SDS011;66927;48.812;9.118;2023-02-22T01:07:47;7.10;;;4.50;;
12826;SDS011;66927;48.812;9.118;2023-02-22T01:10:13;4.33;;;3.17;;
12826;SDS011;66927;48.812;9.118;2023-02-22T01:12:43;6.00;;;3.53;;
12826;SDS011;66927;48.812;9.118;2023-02-22T01:15:09;7.67;;;3.80;;
12826;SDS011;66927;48.812;9.118;2023-02-22T01:17:36;5.03;;;3.33;;
12826;SDS011;66927;48.812;9.118;2023-02-22T01:20:04;5.20;;;3.63;;
12826;SDS011;66927;48.812;9.118;2023-02-22T01:22:38;7.30;;;3.40;;
12826;SDS011;66927;48.812;9.118;2023-02-22T01:25:05;4.50;;;3.73;;
12826;SDS011;66927;48.812;9.118;2023-02-22T01:27:31;6.47;;;4.87;;
12826;SDS011;66927;48.812;9.118;2023-02-22T01:30:00;5.30;;;4.43;;
12826;SDS011;66927;48.812;9.118;2023-02-22T01:32:32;7.80;;;4.63;;
12826;SDS011;66927;48.812;9.118;2023-02-22T01:34:59;9.03;;;4.37;;
12826;SDS011;66927;48.812;9.118;2023-02-22T01:37:30;7.43;;;4.00;;
12826;SDS011;66927;48.812;9.118;2023-02-22T01:39:56;7.20;;;4.20;;
12826;SDS011;66927;48.812;9.118;2023-02-22T01:42:22;7.80;;;4.10;;
12826;SDS011;66927;48.812;9.118;2023-02-22T01:47:53;6.17;;;3.37;;
12826;SDS011;66927;48.812;9.118;2023-02-22T01:50:41;3.83;;;2.70;;
12826;SDS011;66927;48.812;9.118;2023-02-22T01:53:12;4.67;;;2.80;;
12826;SDS011;66927;48.812;9.118;2023-02-22T01:55:40;4.40;;;2.90;;
12826;SDS011;66927;48.812;9.118;2023-02-22T01:58:06;4.77;;;3.13;;
12826;SDS011;66927;48.812;9.118;2023-02-22T02:00:33;4.50;;;3.40;;
12826;SDS011;66927;48.812;9.118;2023-02-22T02:03:04;5.13;;;3.50;;
12826;SDS011;66927;48.812;9.118;2023-02-22T02:05:34;5.57;;;3.00;;
12826;SDS011;66927;48.812;9.118;2023-02-22T02:08:04;3.70;;;2.70;;
12826;SDS011;66927;48.812;9.118;2023-02-22T02:10:56;4.80;;;3.20;;
12826;SDS011;66927;48.812;9.118;2023-02-22T02:13:24;5.37;;;3.37;;
12826;SDS011;66927;48.812;9.118;2023-02-22T02:15:52;6.70;;;3.43;;
12826;SDS011;66927;48.812;9.118;2023-02-22T02:18:19;4.50;;;3.17;;
12826;SDS011;66927;48.812;9.118;2023-02-22T02:21:37;4.20;;;3.17;;
12826;SDS011;66927;48.812;9.118;2023-02-22T02:38:09;6.37;;;4.63;;
12826;SDS011;66927;48.812;9.118;2023-02-22T02:41:14;7.37;;;4.40;;
12826;SDS011;66927;48.812;9.118;2023-02-22T02:47:08;7.10;;;3.60;;
12826;SDS011;66927;48.812;9.118;2023-02-22T02:50:00;5.57;;;3.73;;
12826;SDS011;66927;48.812;9.118;2023-02-22T02:52:30;6.23;;;3.87;;
12826;SDS011;66927;48.812;9.118;2023-02-22T02:54:57;5.20;;;3.83;;
12826;SDS011;66927;48.812;9.118;2023-02-22T02:57:25;4.50;;;3.37;;
12826;SDS011;66927;48.812;9.118;2023-02-22T02:59:51;5.07;;;3.70;;
12826;SDS011;66927;48.812;9.118;2023-02-22T03:02:40;8.27;;;4.57;;
12826;SDS011;66927;48.812;9.118;2023-02-22T03:05:33;6.17;;;3.90;;
12826;SDS011;66927;48.812;9.118;2023-02-22T03:10:55;5.17;;;4.17;;
12826;SDS011;66927;48.812;9.118;2023-02-22T03:13:35;6.27;;;4.63;;
12826;SDS011;66927;48.812;9.118;2023-02-22T03:18:53;7.67;;;4.13;;
12826;SDS011;66927;48.812;9.118;2023-02-22T03:29:19;8.83;;;5.30;;
12826;SDS011;66927;48.812;9.118;2023-02-22T03:31:50;6.67;;;4.27;;
12826;SDS011;66927;48.812;9.118;2023-02-22T03:34:20;7.60;;;5.07;;
12826;SDS011;66927;48.812;9.118;2023-02-22T03:37:24;6.83;;;4.83;;
12826;SDS011;66927;48.812;9.118;2023-02-22T03:39:43;6.80;;;4.60;;
12826;SDS011;66927;48.812;9.118;2023-02-22T03:42:16;5.63;;;4.30;;
12826;SDS011;66927;48.812;9.118;2023-02-22T03:44:46;4.90;;;3.83;;
12826;SDS011;66927;48.812;9.118;2023-02-22T03:47:15;5.60;;;4.20;;
12826;SDS011;66927;48.812;9.118;2023-02-22T03:50:31;5.83;;;4.13;;
12826;SDS011;66927;48.812;9.118;2023-02-22T03:52:36;8.27;;;4.90;;
12826;SDS011;66927;48.812;9.118;2023-02-22T03:55:02;5.53;;;4.20;;
12826;SDS011;66927;48.812;9.118;2023-02-22T03:57:35;6.13;;;4.33;;
12826;SDS011;66927;48.812;9.118;2023-02-22T04:00:06;5.37;;;4.30;;
12826;SDS011;66927;48.812;9.118;2023-02-22T04:02:35;5.47;;;4.40;;
12826;SDS011;66927;48.812;9.118;2023-02-22T04:05:01;8.87;;;4.90;;
12826;SDS011;66927;48.812;9.118;2023-02-22T04:07:28;5.83;;;4.23;;
12826;SDS011;66927;48.812;9.118;2023-02-22T04:09:54;8.13;;;4.60;;
12826;SDS011;66927;48.812;9.118;2023-02-22T04:12:19;5.83;;;4.60;;
12826;SDS011;66927;48.812;9.118;2023-02-22T04:14:45;7.10;;;4.77;;
12826;SDS011;66927;48.812;9.118;2023-02-22T04:17:10;6.77;;;4.57;;
12826;SDS011;66927;48.812;9.118;2023-02-22T04:19:36;8.47;;;5.30;;
12826;SDS011;66927;48.812;9.118;2023-02-22T04:22:02;6.57;;;4.60;;
12826;SDS011;66927;48.812;9.118;2023-02-22T04:24:27;8.53;;;5.00;;
12826;SDS011;66927;48.812;9.118;2023-02-22T04:26:53;7.57;;;5.50;;
12826;SDS011;66927;48.812;9.118;2023-02-22T04:29:19;8.97;;;5.37;;
12826;SDS011;66927;48.812;9.118;2023-02-22T04:31:47;7.13;;;5.07;;
12826;SDS011;66927;48.812;9.118;2023-02-22T04:34:12;7.40;;;5.57;;
12826;SDS011;66927;48.812;9.118;2023-02-22T04:36:38;8.37;;;5.90;;
12826;SDS011;66927;48.812;9.118;2023-02-22T04:39:06;7.90;;;5.33;;
12826;SDS011;66927;48.812;9.118;2023-02-22T04:41:32;9.63;;;5.67;;
12826;SDS011;66927;48.812;9.118;2023-02-22T04:43:58;7.27;;;5.00;;
12826;SDS011;66927;48.812;9.118;2023-02-22T04:46:25;10.53;;;5.93;;
12826;SDS011;66927;48.812;9.118;2023-02-22T04:48:51;8.40;;;6.30;;
12826;SDS011;66927;48.812;9.118;2023-02-22T04:51:19;8.27;;;5.60;;
12826;SDS011;66927;48.812;9.118;2023-02-22T04:53:44;10.00;;;6.10;;
12826;SDS011;66927;48.812;9.118;2023-02-22T04:56:10;10.00;;;6.00;;
12826;SDS011;66927;48.812;9.118;2023-02-22T04:58:37;9.03;;;6.10;;
12826;SDS011;66927;48.812;9.118;2023-02-22T05:01:02;9.27;;;5.73;;
12826;SDS011;66927;48.812;9.118;2023-02-22T05:03:28;7.50;;;5.97;;
12826;SDS011;66927;48.812;9.118;2023-02-22T05:05:54;9.63;;;5.87;;
12826;SDS011;66927;48.812;9.118;2023-02-22T05:08:20;9.00;;;5.43;;
12826;SDS011;66927;48.812;9.118;2023-02-22T05:10:46;8.57;;;6.37;;
12826;SDS011;66927;48.812;9.118;2023-02-22T05:13:11;8.83;;;6.30;;
12826;SDS011;66927;48.812;9.118;2023-02-22T05:15:37;6.73;;;5.37;;
12826;SDS011;66927;48.812;9.118;2023-02-22T05:18:03;6.17;;;5.37;;
12826;SDS011;66927;48.812;9.118;2023-02-22T05:20:29;9.80;;;5.43;;
12826;SDS011;66927;48.812;9.118;2023-02-22T05:22:57;13.23;;;5.27;;
12826;SDS011;66927;48.812;9.118;2023-02-22T05:25:24;6.47;;;5.10;;
12826;SDS011;66927;48.812;9.118;2023-02-22T05:30:22;7.47;;;5.37;;
12826;SDS011;66927;48.812;9.118;2023-02-22T05:32:50;8.33;;;5.03;;
12826;SDS011;66927;48.812;9.118;2023-02-22T05:35:16;6.53;;;4.73;;
12826;SDS011;66927;48.812;9.118;2023-02-22T05:37:46;8.20;;;5.37;;
12826;SDS011;66927;48.812;9.118;2023-02-22T05:40:12;6.07;;;5.33;;
12826;SDS011;66927;48.812;9.118;2023-02-22T05:42:39;7.47;;;5.40;;
12826;SDS011;66927;48.812;9.118;2023-02-22T05:45:06;8.47;;;5.40;;
12826;SDS011;66927;48.812;9.118;2023-02-22T05:47:33;7.10;;;5.27;;
12826;SDS011;66927;48.812;9.118;2023-02-22T05:49:59;6.73;;;5.00;;
12826;SDS011;66927;48.812;9.118;2023-02-22T05:52:25;7.47;;;5.27;;
12826;SDS011;66927;48.812;9.118;2023-02-22T05:54:51;7.60;;;5.27;;
12826;SDS011;66927;48.812;9.118;2023-02-22T05:57:17;6.70;;;5.43;;
12826;SDS011;66927;48.812;9.118;2023-02-22T05:59:42;8.03;;;5.23;;
12826;SDS011;66927;48.812;9.118;2023-02-22T06:02:08;6.97;;;5.47;;
12826;SDS011;66927;48.812;9.118;2023-02-22T06:04:34;8.70;;;5.03;;
12826;SDS011;66927;48.812;9.118;2023-02-22T06:07:01;7.43;;;5.13;;
12826;SDS011;66927;48.812;9.118;2023-02-22T06:09:26;7.67;;;5.77;;
12826;SDS011;66927;48.812;9.118;2023-02-22T06:11:55;7.90;;;5.10;;
12826;SDS011;66927;48.812;9.118;2023-02-22T06:14:21;5.83;;;5.10;;
12826;SDS011;66927;48.812;9.118;2023-02-22T06:16:53;8.77;;;5.40;;
12826;SDS011;66927;48.812;9.118;2023-02-22T06:19:21;8.30;;;6.40;;
12826;SDS011;66927;48.812;9.118;2023-02-22T06:21:48;9.03;;;6.27;;
12826;SDS011;66927;48.812;9.118;2023-02-22T06:24:14;10.57;;;6.30;;
12826;SDS011;66927;48.812;9.118;2023-02-22T06:26:41;7.20;;;5.00;;
12826;SDS011;66927;48.812;9.118;2023-02-22T06:29:07;9.77;;;4.97;;
12826;SDS011;66927;48.812;9.118;2023-02-22T06:31:33;7.20;;;4.50;;
12826;SDS011;66927;48.812;9.118;2023-02-22T06:34:00;6.50;;;4.67;;
12826;SDS011;66927;48.812;9.118;2023-02-22T06:36:26;9.17;;;4.70;;
12826;SDS011;66927;48.812;9.118;2023-02-22T06:38:54;7.73;;;5.17;;
12826;SDS011;66927;48.812;9.118;2023-02-22T06:41:20;8.43;;;5.30;;
12826;SDS011;66927;48.812;9.118;2023-02-22T06:43:46;7.43;;;4.90;;
12826;SDS011;66927;48.812;9.118;2023-02-22T06:46:12;9.40;;;5.27;;
12826;SDS011;66927;48.812;9.118;2023-02-22T06:48:38;9.20;;;5.63;;
12826;SDS011;66927;48.812;9.118;2023-02-22T06:51:07;6.67;;;4.70;;
12826;SDS011;66927;48.812;9.118;2023-02-22T06:53:34;7.10;;;5.60;;
12826;SDS011;66927;48.812;9.118;2023-02-22T06:56:00;6.40;;;4.80;;
12826;SDS011;66927;48.812;9.118;2023-02-22T06:58:26;6.80;;;4.97;;
12826;SDS011;66927;48.812;9.118;2023-02-22T07:00:52;8.90;;;5.17;;
12826;SDS011;66927;48.812;9.118;2023-02-22T07:03:20;7.67;;;5.10;;
12826;SDS011;66927;48.812;9.118;2023-02-22T07:05:46;12.83;;;5.03;;
12826;SDS011;66927;48.812;9.118;2023-02-22T07:08:12;7.33;;;5.10;;
12826;SDS011;66927;48.812;9.118;2023-02-22T07:10:38;9.93;;;6.07;;
12826;SDS011;66927;48.812;9.118;2023-02-22T07:13:06;6.60;;;5.43;;
12826;SDS011;66927;48.812;9.118;2023-02-22T07:15:33;9.47;;;5.67;;
12826;SDS011;66927;48.812;9.118;2023-02-22T07:17:59;10.90;;;6.50;;
12826;SDS011;66927;48.812;9.118;2023-02-22T07:20:29;10.93;;;6.70;;
12826;SDS011;66927;48.812;9.118;2023-02-22T07:22:55;9.63;;;6.00;;
12826;SDS011;66927;48.812;9.118;2023-02-22T07:25:21;13.53;;;7.37;;
12826;SDS011;66927;48.812;9.118;2023-02-22T07:27:47;13.33;;;7.10;;
12826;SDS011;66927;48.812;9.118;2023-02-22T07:30:23;9.13;;;6.37;;
12826;SDS011;66927;48.812;9.118;2023-02-22T07:32:52;11.73;;;7.00;;
12826;SDS011;66927;48.812;9.118;2023-02-22T07:35:21;11.50;;;6.90;;
12826;SDS011;66927;48.812;9.118;2023-02-22T07:37:48;8.53;;;5.60;;
12826;SDS011;66927;48.812;9.118;2023-02-22T07:40:14;8.00;;;5.87;;
12826;SDS011;66927;48.812;9.118;2023-02-22T07:42:55;10.73;;;6.17;;
12826;SDS011;66927;48.812;9.118;2023-02-22T07:45:37;9.03;;;5.90;;
12826;SDS011;66927;48.812;9.118;2023-02-22T07:48:03;11.37;;;5.77;;
12826;SDS011;66927;48.812;9.118;2023-02-22T07:50:30;9.67;;;6.17;;
12826;SDS011;66927;48.812;9.118;2023-02-22T07:52:57;7.63;;;6.33;;
12826;SDS011;66927;48.812;9.118;2023-02-22T07:55:26;12.40;;;7.40;;
12826;SDS011;66927;48.812;9.118;2023-02-22T07:57:53;12.83;;;7.20;;
12826;SDS011;66927;48.812;9.118;2023-02-22T08:00:28;8.97;;;6.97;;
12826;SDS011;66927;48.812;9.118;2023-02-22T08:02:56;11.83;;;7.17;;
12826;SDS011;66927;48.812;9.118;2023-02-22T08:05:24;15.17;;;7.73;;
12826;SDS011;66927;48.812;9.118;2023-02-22T08:07:51;9.93;;;7.13;;
12826;SDS011;66927;48.812;9.118;2023-02-22T08:10:17;13.90;;;8.03;;
12826;SDS011;66927;48.812;9.118;2023-02-22T08:12:44;11.87;;;8.30;;
12826;SDS011;66927;48.812;9.118;2023-02-22T08:15:14;12.23;;;7.63;;
12826;SDS011;66927;48.812;9.118;2023-02-22T08:17:42;13.97;;;8.00;;
12826;SDS011;66927;48.812;9.118;2023-02-22T08:20:08;12.33;;;8.63;;
12826;SDS011;66927;48.812;9.118;2023-02-22T08:22:34;11.07;;;7.93;;
12826;SDS011;66927;48.812;9.118;2023-02-22T08:24:59;12.77;;;7.70;;
12826;SDS011;66927;48.812;9.118;2023-02-22T08:27:27;14.70;;;7.87;;
12826;SDS011;66927;48.812;9.118;2023-02-22T08:29:54;13.90;;;8.43;;
12826;SDS011;66927;48.812;9.118;2023-02-22T08:32:21;13.17;;;7.80;;
12826;SDS011;66927;48.812;9.118;2023-02-22T08:34:47;14.43;;;8.30;;
12826;SDS011;66927;48.812;9.118;2023-02-22T08:37:14;13.20;;;7.97;;
12826;SDS011;66927;48.812;9.118;2023-02-22T08:39:40;14.10;;;7.63;;
12826;SDS011;66927;48.812;9.118;2023-02-22T08:42:07;9.80;;;7.63;;
12826;SDS011;66927;48.812;9.118;2023-02-22T08:44:38;13.63;;;8.40;;
12826;SDS011;66927;48.812;9.118;2023-02-22T08:47:04;14.33;;;8.53;;
12826;SDS011;66927;48.812;9.118;2023-02-22T08:49:31;13.20;;;8.07;;
12826;SDS011;66927;48.812;9.118;2023-02-22T08:51:57;12.43;;;8.33;;
12826;SDS011;66927;48.812;9.118;2023-02-22T08:54:23;14.60;;;9.50;;
12826;SDS011;66927;48.812;9.118;2023-02-22T08:56:49;15.07;;;8.53;;
12826;SDS011;66927;48.812;9.118;2023-02-22T08:59:15;18.47;;;8.53;;
12826;SDS011;66927;48.812;9.118;2023-02-22T09:01:41;14.97;;;7.90;;
12826;SDS011;66927;48.812;9.118;2023-02-22T09:04:07;17.83;;;8.40;;
12826;SDS011;66927;48.812;9.118;2023-02-22T09:06:33;12.87;;;7.87;;
12826;SDS011;66927;48.812;9.118;2023-02-22T09:08:59;9.73;;;6.67;;
12826;SDS011;66927;48.812;9.118;2023-02-22T09:11:25;7.80;;;6.10;;
12826;SDS011;66927;48.812;9.118;2023-02-22T09:13:51;10.97;;;7.17;;
12826;SDS011;66927;48.812;9.118;2023-02-22T09:16:17;10.60;;;7.10;;
12826;SDS011;66927;48.812;9.118;2023-02-22T09:18:42;11.40;;;6.40;;
12826;SDS011;66927;48.812;9.118;2023-02-22T09:21:08;11.30;;;6.70;;
12826;SDS011;66927;48.812;9.118;2023-02-22T09:23:35;10.83;;;6.83;;
12826;SDS011;66927;48.812;9.118;2023-02-22T09:26:02;10.77;;;5.73;;
12826;SDS011;66927;48.812;9.118;2023-02-22T09:28:28;8.53;;;6.03;;
12826;SDS011;66927;48.812;9.118;2023-02-22T09:30:55;7.17;;;6.00;;
12826;SDS011;66927;48.812;9.118;2023-02-22T09:33:21;6.80;;;6.10;;
12826;SDS011;66927;48.812;9.118;2023-02-22T09:35:47;8.17;;;5.80;;
12826;SDS011;66927;48.812;9.118;2023-02-22T09:38:18;7.90;;;5.80;;
12826;SDS011;66927;48.812;9.118;2023-02-22T09:43:40;8.93;;;5.97;;
12826;SDS011;66927;48.812;9.118;2023-02-22T09:46:32;8.40;;;6.07;;
12826;SDS011;66927;48.812;9.118;2023-02-22T09:54:28;6.97;;;5.50;;
12826;SDS011;66927;48.812;9.118;2023-02-22T09:57:08;9.30;;;6.13;;
12826;SDS011;66927;48.812;9.118;2023-02-22T09:59:45;8.33;;;5.87;;
12826;SDS011;66927;48.812;9.118;2023-02-22T10:02:31;6.77;;;5.00;;
12826;SDS011;66927;48.812;9.118;2023-02-22T10:05:05;7.17;;;5.47;;
12826;SDS011;66927;48.812;9.118;2023-02-22T10:07:50;9.30;;;6.10;;
12826;SDS011;66927;48.812;9.118;2023-02-22T10:10:31;11.37;;;5.70;;
12826;SDS011;66927;48.812;9.118;2023-02-22T10:21:14;7.90;;;5.70;;
12826;SDS011;66927;48.812;9.118;2023-02-22T10:26:27;11.23;;;5.80;;
12826;SDS011;66927;48.812;9.118;2023-02-22T10:29:02;7.73;;;5.40;;
12826;SDS011;66927;48.812;9.118;2023-02-22T10:31:44;7.17;;;5.83;;
12826;SDS011;66927;48.812;9.118;2023-02-22T10:34:14;10.03;;;6.13;;
12826;SDS011;66927;48.812;9.118;2023-02-22T10:36:45;10.57;;;6.87;;
12826;SDS011;66927;48.812;9.118;2023-02-22T10:39:22;7.20;;;5.93;;
12826;SDS011;66927;48.812;9.118;2023-02-22T10:41:54;8.63;;;6.37;;
12826;SDS011;66927;48.812;9.118;2023-02-22T10:44:22;10.07;;;7.13;;
12826;SDS011;66927;48.812;9.118;2023-02-22T10:46:48;10.07;;;7.10;;
12826;SDS011;66927;48.812;9.118;2023-02-22T10:49:17;9.13;;;6.50;;
12826;SDS011;66927;48.812;9.118;2023-02-22T10:52:32;8.57;;;6.17;;
12826;SDS011;66927;48.812;9.118;2023-02-22T10:55:04;7.77;;;6.43;;
12826;SDS011;66927;48.812;9.118;2023-02-22T10:57:36;9.43;;;6.87;;
12826;SDS011;66927;48.812;9.118;2023-02-22T11:02:53;7.00;;;6.17;;
12826;SDS011;66927;48.812;9.118;2023-02-22T11:05:26;7.37;;;6.63;;
12826;SDS011;66927;48.812;9.118;2023-02-22T11:10:48;11.60;;;6.90;;
12826;SDS011;66927;48.812;9.118;2023-02-22T11:13:24;7.63;;;6.85;;
12826;SDS011;66927;48.812;9.118;2023-02-22T11:15:57;7.43;;;6.65;;
12826;SDS011;66927;48.812;9.118;2023-02-22T11:18:43;7.53;;;6.80;;
12826;SDS011;66927;48.812;9.118;2023-02-22T11:21:11;9.43;;;7.15;;
12826;SDS011;66927;48.812;9.118;2023-02-22T11:23:39;10.57;;;7.35;;
12826;SDS011;66927;48.812;9.118;2023-02-22T11:26:09;10.10;;;7.60;;
12826;SDS011;66927;48.812;9.118;2023-02-22T11:28:39;10.23;;;7.80;;
12826;SDS011;66927;48.812;9.118;2023-02-22T11:31:18;8.73;;;7.63;;
12826;SDS011;66927;48.812;9.118;2023-02-22T11:36:29;9.90;;;8.02;;
12826;SDS011;66927;48.812;9.118;2023-02-22T11:38:57;12.65;;;9.23;;
12826;SDS011;66927;48.812;9.118;2023-02-22T11:41:28;11.13;;;9.25;;
12826;SDS011;66927;48.812;9.118;2023-02-22T11:44:11;9.50;;;8.48;;
12826;SDS011;66927;48.812;9.118;2023-02-22T11:46:39;9.82;;;8.77;;
12826;SDS011;66927;48.812;9.118;2023-02-22T11:49:07;9.35;;;8.45;;
12826;SDS011;66927;48.812;9.118;2023-02-22T11:51:42;13.23;;;9.60;;
12826;SDS011;66927;48.812;9.118;2023-02-22T11:54:35;10.90;;;9.80;;
12826;SDS011;66927;48.812;9.118;2023-02-22T12:00:00;10.48;;;9.43;;
12826;SDS011;66927;48.812;9.118;2023-02-22T12:08:15;10.30;;;9.30;;
12826;SDS011;66927;48.812;9.118;2023-02-22T12:13:59;10.93;;;9.85;;
12826;SDS011;66927;48.812;9.118;2023-02-22T12:16:44;11.50;;;10.30;;
12826;SDS011;66927;48.812;9.118;2023-02-22T12:22:08;11.63;;;9.30;;
12826;SDS011;66927;48.812;9.118;2023-02-22T12:25:00;12.40;;;10.00;;
12826;SDS011;66927;48.812;9.118;2023-02-22T12:27:30;10.73;;;9.63;;
12826;SDS011;66927;48.812;9.118;2023-02-22T12:30:06;10.50;;;9.43;;
12826;SDS011;66927;48.812;9.118;2023-02-22T12:32:41;11.15;;;9.00;;
12826;SDS011;66927;48.812;9.118;2023-02-22T12:38:27;10.73;;;8.85;;
12826;SDS011;66927;48.812;9.118;2023-02-22T12:40:36;9.75;;;8.85;;
12826;SDS011;66927;48.812;9.118;2023-02-22T12:43:28;10.73;;;8.57;;
12826;SDS011;66927;48.812;9.118;2023-02-22T12:54:06;10.20;;;8.32;;
12826;SDS011;66927;48.812;9.118;2023-02-22T12:56:54;11.57;;;8.20;;
12826;SDS011;66927;48.812;9.118;2023-02-22T12:59:34;12.85;;;9.38;;
12826;SDS011;66927;48.812;9.118;2023-02-22T13:02:27;9.23;;;8.32;;
12826;SDS011;66927;48.812;9.118;2023-02-22T13:05:00;9.43;;;8.30;;
12826;SDS011;66927;48.812;9.118;2023-02-22T13:12:44;9.15;;;8.25;;
12826;SDS011;66927;48.812;9.118;2023-02-22T13:20:29;9.35;;;8.30;;
12826;SDS011;66927;48.812;9.118;2023-02-22T13:23:28;10.20;;;9.07;;
12826;SDS011;66927;48.812;9.118;2023-02-22T13:28:38;11.15;;;8.98;;
12826;SDS011;66927;48.812;9.118;2023-02-22T13:31:18;9.55;;;8.65;;
12826;SDS011;66927;48.812;9.118;2023-02-22T13:53:10;16.05;;;9.30;;
12826;SDS011;66927;48.812;9.118;2023-02-22T13:55:40;9.07;;;8.18;;
12826;SDS011;66927;48.812;9.118;2023-02-22T13:58:11;10.30;;;8.15;;
12826;SDS011;66927;48.812;9.118;2023-02-22T14:03:29;11.55;;;10.15;;
12826;SDS011;66927;48.812;9.118;2023-02-22T14:06:47;11.68;;;9.10;;
12826;SDS011;66927;48.812;9.118;2023-02-22T14:09:12;15.32;;;9.93;;
12826;SDS011;66927;48.812;9.118;2023-02-22T14:11:47;10.50;;;9.40;;
12826;SDS011;66927;48.812;9.118;2023-02-22T14:14:20;10.03;;;9.03;;
12826;SDS011;66927;48.812;9.118;2023-02-22T14:17:14;12.77;;;9.17;;
12826;SDS011;66927;48.812;9.118;2023-02-22T14:28:43;11.10;;;9.10;;
12826;SDS011;66927;48.812;9.118;2023-02-22T14:31:16;12.80;;;9.60;;
12826;SDS011;66927;48.812;9.118;2023-02-22T14:34:16;11.43;;;10.07;;
12826;SDS011;66927;48.812;9.118;2023-02-22T14:39:35;11.73;;;10.53;;
12826;SDS011;66927;48.812;9.118;2023-02-22T14:47:30;11.07;;;9.87;;
12826;SDS011;66927;48.812;9.118;2023-02-22T14:50:15;11.63;;;9.53;;
12826;SDS011;66927;48.812;9.118;2023-02-22T14:52:47;12.07;;;9.73;;
12826;SDS011;66927;48.812;9.118;2023-02-22T14:55:29;11.60;;;9.60;;
12826;SDS011;66927;48.812;9.118;2023-02-22T14:58:08;11.50;;;9.60;;
12826;SDS011;66927;48.812;9.118;2023-02-22T15:00:52;12.20;;;9.73;;
12826;SDS011;66927;48.812;9.118;2023-02-22T15:06:05;12.67;;;9.70;;
12826;SDS011;66927;48.812;9.118;2023-02-22T15:08:40;11.17;;;9.23;;
12826;SDS011;66927;48.812;9.118;2023-02-22T15:11:22;13.37;;;10.67;;
12826;SDS011;66927;48.812;9.118;2023-02-22T15:13:51;12.97;;;11.50;;
12826;SDS011;66927;48.812;9.118;2023-02-22T15:16:19;13.57;;;9.93;;
12826;SDS011;66927;48.812;9.118;2023-02-22T15:18:47;11.53;;;9.93;;
12826;SDS011;66927;48.812;9.118;2023-02-22T15:21:22;10.97;;;9.87;;
12826;SDS011;66927;48.812;9.118;2023-02-22T15:23:51;10.90;;;8.97;;
12826;SDS011;66927;48.812;9.118;2023-02-22T15:26:53;12.43;;;10.30;;
12826;SDS011;66927;48.812;9.118;2023-02-22T15:29:17;14.70;;;12.03;;
12826;SDS011;66927;48.812;9.118;2023-02-22T15:31:43;11.50;;;10.07;;
12826;SDS011;66927;48.812;9.118;2023-02-22T15:36:40;10.83;;;9.73;;
12826;SDS011;66927;48.812;9.118;2023-02-22T15:39:17;10.53;;;9.10;;
12826;SDS011;66927;48.812;9.118;2023-02-22T15:41:44;11.20;;;10.07;;
12826;SDS011;66927;48.812;9.118;2023-02-22T15:44:11;9.57;;;8.57;;
12826;SDS011;66927;48.812;9.118;2023-02-22T15:46:39;11.37;;;9.43;;
12826;SDS011;66927;48.812;9.118;2023-02-22T15:51:35;13.37;;;10.20;;
12826;SDS011;66927;48.812;9.118;2023-02-22T15:54:04;10.77;;;9.07;;
12826;SDS011;66927;48.812;9.118;2023-02-22T15:56:33;11.40;;;10.20;;
12826;SDS011;66927;48.812;9.118;2023-02-22T16:01:49;12.43;;;9.73;;
12826;SDS011;66927;48.812;9.118;2023-02-22T16:04:18;11.90;;;10.70;;
12826;SDS011;66927;48.812;9.118;2023-02-22T16:06:46;12.05;;;10.63;;
12826;SDS011;66927;48.812;9.118;2023-02-22T16:09:16;10.70;;;9.60;;
12826;SDS011;66927;48.812;9.118;2023-02-22T16:11:50;13.43;;;10.47;;
12826;SDS011;66927;48.812;9.118;2023-02-22T16:19:53;13.07;;;9.60;;
12826;SDS011;66927;48.812;9.118;2023-02-22T16:24:52;9.73;;;8.57;;
12826;SDS011;66927;48.812;9.118;2023-02-22T16:27:20;12.63;;;10.70;;
12826;SDS011;66927;48.812;9.118;2023-02-22T16:30:16;11.57;;;9.70;;
12826;SDS011;66927;48.812;9.118;2023-02-22T16:32:50;9.77;;;8.70;;
12826;SDS011;66927;48.812;9.118;2023-02-22T16:35:16;12.40;;;9.93;;
12826;SDS011;66927;48.812;9.118;2023-02-22T16:37:54;11.20;;;9.10;;
12826;SDS011;66927;48.812;9.118;2023-02-22T16:40:38;9.77;;;8.77;;
12826;SDS011;66927;48.812;9.118;2023-02-22T16:43:13;12.63;;;9.70;;
12826;SDS011;66927;48.812;9.118;2023-02-22T16:45:41;11.90;;;10.07;;
12826;SDS011;66927;48.812;9.118;2023-02-22T16:48:41;10.97;;;9.10;;
12826;SDS011;66927;48.812;9.118;2023-02-22T16:51:37;13.47;;;11.23;;
12826;SDS011;66927;48.812;9.118;2023-02-22T16:53:58;15.37;;;11.27;;
12826;SDS011;66927;48.812;9.118;2023-02-22T16:56:26;14.27;;;11.03;;
12826;SDS011;66927;48.812;9.118;2023-02-22T16:58:53;14.20;;;11.57;;
12826;SDS011;66927;48.812;9.118;2023-02-22T17:01:19;14.87;;;12.03;;
12826;SDS011;66927;48.812;9.118;2023-02-22T17:03:47;16.13;;;12.70;;
12826;SDS011;66927;48.812;9.118;2023-02-22T17:06:15;14.47;;;12.20;;
12826;SDS011;66927;48.812;9.118;2023-02-22T17:08:41;13.37;;;10.73;;
12826;SDS011;66927;48.812;9.118;2023-02-22T17:11:07;13.53;;;10.23;;
12826;SDS011;66927;48.812;9.118;2023-02-22T17:13:35;13.13;;;9.83;;
12826;SDS011;66927;48.812;9.118;2023-02-22T17:16:01;13.93;;;10.07;;
12826;SDS011;66927;48.812;9.118;2023-02-22T17:18:27;17.37;;;10.83;;
12826;SDS011;66927;48.812;9.118;2023-02-22T17:20:57;14.33;;;10.30;;
12826;SDS011;66927;48.812;9.118;2023-02-22T17:23:24;13.33;;;9.20;;
12826;SDS011;66927;48.812;9.118;2023-02-22T17:25:58;15.63;;;9.80;;
12826;SDS011;66927;48.812;9.118;2023-02-22T17:28:28;11.57;;;9.60;;
12826;SDS011;66927;48.812;9.118;2023-02-22T17:30:55;15.63;;;11.07;;
12826;SDS011;66927;48.812;9.118;2023-02-22T17:33:25;13.50;;;9.73;;
12826;SDS011;66927;48.812;9.118;2023-02-22T17:35:54;17.20;;;11.40;;
12826;SDS011;66927;48.812;9.118;2023-02-22T17:38:22;16.87;;;12.83;;
12826;SDS011;66927;48.812;9.118;2023-02-22T17:40:48;14.83;;;11.43;;
12826;SDS011;66927;48.812;9.118;2023-02-22T17:43:18;19.37;;;12.20;;
12826;SDS011;66927;48.812;9.118;2023-02-22T17:45:44;14.63;;;11.20;;